sensor_id;sensor_type;location;lat;lon;timestamp;pressure;altitude;pressure_sealevel;temperature;humidity
14067;BME280;7108;42.684;23.350;2023-07-31T00:00:00;94963.28;;;22.30;100.00
14067;BME280;7108;42.684;23.350;2023-07-31T00:02:26;94973.16;;;22.40;100.00
14067;BME280;7108;42.684;23.350;2023-07-31T00:04:51;94963.72;;;22.41;100.00
14067;BME280;7108;42.684;23.350;2023-07-31T00:07:16;94963.41;;;22.39;100.00
14067;BME280;7108;42.684;23.350;2023-07-31T00:09:42;94966.16;;;22.39;100.00
14067;BME280;7108;42.684;23.350;2023-07-31T00:12:08;94972.81;;;22.13;100.00
14067;BME280;7108;42.684;23.350;2023-07-31T00:14:33;94977.72;;;22.06;100.00
14067;BME280;7108;42.684;23.350;2023-07-31T00:16:58;94968.25;;;21.94;100.00
14067;BME280;7108;42.684;23.350;2023-07-31T00:19:24;94927.69;;;21.61;100.00
14067;BME280;7108;42.684;23.350;2023-07-31T00:21:49;94980.66;;;21.86;100.00
14067;BME280;7108;42.684;23.350;2023-07-31T00:24:18;94952.44;;;21.86;100.00
14067;BME280;7108;42.684;23.350;2023-07-31T00:26:43;94952.31;;;21.89;100.00
14067;BME280;7108;42.684;23.350;2023-07-31T00:29:08;94944.34;;;21.95;100.00
14067;BME280;7108;42.684;23.350;2023-07-31T00:31:34;94965.00;;;22.12;100.00
14067;BME280;7108;42.684;23.350;2023-07-31T00:33:59;94960.22;;;22.28;100.00
14067;BME280;7108;42.684;23.350;2023-07-31T00:36:25;94927.59;;;22.30;100.00
14067;BME280;7108;42.684;23.350;2023-07-31T00:38:50;94941.97;;;22.22;100.00
14067;BME280;7108;42.684;23.350;2023-07-31T00:41:16;94927.00;;;22.10;100.00
14067;BME280;7108;42.684;23.350;2023-07-31T00:43:41;94921.31;;;22.05;100.00
14067;BME280;7108;42.684;23.350;2023-07-31T00:46:07;94905.50;;;21.96;100.00
14067;BME280;7108;42.684;23.350;2023-07-31T00:48:33;94928.34;;;22.18;100.00
14067;BME280;7108;42.684;23.350;2023-07-31T00:50:59;94930.41;;;22.14;100.00
14067;BME280;7108;42.684;23.350;2023-07-31T00:53:26;94944.13;;;22.02;100.00
14067;BME280;7108;42.684;23.350;2023-07-31T00:55:53;94959.56;;;21.83;100.00
14067;BME280;7108;42.684;23.350;2023-07-31T00:58:18;94931.63;;;21.44;100.00
14067;BME280;7108;42.684;23.350;2023-07-31T01:00:44;94947.91;;;21.51;100.00
14067;BME280;7108;42.684;23.350;2023-07-31T01:03:10;94945.09;;;21.55;100.00
14067;BME280;7108;42.684;23.350;2023-07-31T01:11:43;94947.91;;;21.51;100.00
14067;BME280;7108;42.684;23.350;2023-07-31T01:14:10;94943.56;;;21.54;100.00
14067;BME280;7108;42.684;23.350;2023-07-31T01:16:36;94947.97;;;21.64;100.00
14067;BME280;7108;42.684;23.350;2023-07-31T01:19:01;94928.22;;;21.56;100.00
14067;BME280;7108;42.684;23.350;2023-07-31T01:27:17;94942.31;;;21.71;100.00
14067;BME280;7108;42.684;23.350;2023-07-31T01:29:56;94925.91;;;21.55;100.00
14067;BME280;7108;42.684;23.350;2023-07-31T01:32:27;94915.59;;;21.59;100.00
14067;BME280;7108;42.684;23.350;2023-07-31T01:34:53;94928.50;;;21.74;100.00
14067;BME280;7108;42.684;23.350;2023-07-31T01:37:19;94928.34;;;21.65;100.00
14067;BME280;7108;42.684;23.350;2023-07-31T01:39:44;94921.63;;;21.54;100.00
14067;BME280;7108;42.684;23.350;2023-07-31T01:42:10;94890.81;;;21.34;100.00
14067;BME280;7108;42.684;23.350;2023-07-31T01:44:35;94887.13;;;21.40;100.00
14067;BME280;7108;42.684;23.350;2023-07-31T01:47:01;94924.94;;;21.61;100.00
14067;BME280;7108;42.684;23.350;2023-07-31T01:49:26;94933.00;;;21.80;100.00
14067;BME280;7108;42.684;23.350;2023-07-31T01:51:52;94937.28;;;21.81;100.00
14067;BME280;7108;42.684;23.350;2023-07-31T01:54:17;94931.34;;;21.83;100.00
14067;BME280;7108;42.684;23.350;2023-07-31T01:56:43;94926.38;;;21.66;100.00
14067;BME280;7108;42.684;23.350;2023-07-31T01:59:08;94890.91;;;21.30;100.00
14067;BME280;7108;42.684;23.350;2023-07-31T02:01:33;94932.84;;;21.59;100.00
14067;BME280;7108;42.684;23.350;2023-07-31T02:03:59;94955.63;;;21.56;100.00
14067;BME280;7108;42.684;23.350;2023-07-31T02:06:24;94945.44;;;21.57;100.00
14067;BME280;7108;42.684;23.350;2023-07-31T02:08:50;94949.66;;;21.74;100.00
14067;BME280;7108;42.684;23.350;2023-07-31T02:11:15;94946.59;;;21.72;100.00
14067;BME280;7108;42.684;23.350;2023-07-31T02:13:41;94902.47;;;21.38;100.00
14067;BME280;7108;42.684;23.350;2023-07-31T02:16:06;94938.75;;;21.42;100.00
14067;BME280;7108;42.684;23.350;2023-07-31T02:18:32;94942.31;;;21.26;100.00
14067;BME280;7108;42.684;23.350;2023-07-31T02:20:57;94967.53;;;21.66;100.00
14067;BME280;7108;42.684;23.350;2023-07-31T02:23:23;94958.41;;;21.69;100.00
14067;BME280;7108;42.684;23.350;2023-07-31T02:25:48;94965.81;;;21.84;100.00
14067;BME280;7108;42.684;23.350;2023-07-31T02:28:13;94937.56;;;21.71;100.00
14067;BME280;7108;42.684;23.350;2023-07-31T02:30:39;94956.28;;;21.88;100.00
14067;BME280;7108;42.684;23.350;2023-07-31T02:33:05;94949.59;;;21.89;100.00
14067;BME280;7108;42.684;23.350;2023-07-31T02:35:30;94962.28;;;21.83;100.00
14067;BME280;7108;42.684;23.350;2023-07-31T02:37:56;94961.75;;;21.88;100.00
14067;BME280;7108;42.684;23.350;2023-07-31T02:40:21;94948.38;;;21.90;100.00
14067;BME280;7108;42.684;23.350;2023-07-31T02:42:47;94959.16;;;21.97;100.00
14067;BME280;7108;42.684;23.350;2023-07-31T02:45:12;94958.41;;;21.69;100.00
14067;BME280;7108;42.684;23.350;2023-07-31T02:47:38;94974.59;;;21.79;100.00
14067;BME280;7108;42.684;23.350;2023-07-31T02:50:04;94955.28;;;21.82;100.00
14067;BME280;7108;42.684;23.350;2023-07-31T02:52:30;94969.75;;;21.83;100.00
14067;BME280;7108;42.684;23.350;2023-07-31T02:54:55;94949.88;;;21.67;100.00
14067;BME280;7108;42.684;23.350;2023-07-31T02:57:20;94935.06;;;21.48;100.00
14067;BME280;7108;42.684;23.350;2023-07-31T02:59:46;94965.25;;;21.48;100.00
14067;BME280;7108;42.684;23.350;2023-07-31T03:02:11;94975.44;;;21.32;100.00
14067;BME280;7108;42.684;23.350;2023-07-31T03:04:38;94999.59;;;21.53;100.00
14067;BME280;7108;42.684;23.350;2023-07-31T03:07:04;94971.13;;;21.47;100.00
14067;BME280;7108;42.684;23.350;2023-07-31T03:09:29;94992.97;;;21.66;100.00
14067;BME280;7108;42.684;23.350;2023-07-31T03:11:55;94982.88;;;21.47;100.00
14067;BME280;7108;42.684;23.350;2023-07-31T03:14:20;94981.50;;;21.55;100.00
14067;BME280;7108;42.684;23.350;2023-07-31T03:16:46;94975.84;;;21.62;100.00
14067;BME280;7108;42.684;23.350;2023-07-31T03:19:11;94963.59;;;21.51;100.00
14067;BME280;7108;42.684;23.350;2023-07-31T03:21:37;94969.72;;;21.71;100.00
14067;BME280;7108;42.684;23.350;2023-07-31T03:24:02;94975.22;;;21.71;100.00
14067;BME280;7108;42.684;23.350;2023-07-31T03:26:27;94939.69;;;21.51;100.00
14067;BME280;7108;42.684;23.350;2023-07-31T03:28:55;94980.31;;;21.56;100.00
14067;BME280;7108;42.684;23.350;2023-07-31T03:31:20;94948.53;;;21.43;100.00
14067;BME280;7108;42.684;23.350;2023-07-31T03:33:45;94983.41;;;21.58;100.00
14067;BME280;7108;42.684;23.350;2023-07-31T03:36:11;94996.81;;;21.69;100.00
14067;BME280;7108;42.684;23.350;2023-07-31T03:38:36;95006.78;;;21.63;100.00
14067;BME280;7108;42.684;23.350;2023-07-31T03:41:01;94993.59;;;21.58;100.00
14067;BME280;7108;42.684;23.350;2023-07-31T03:43:27;95004.81;;;21.63;100.00
14067;BME280;7108;42.684;23.350;2023-07-31T03:45:53;94986.81;;;21.62;100.00
14067;BME280;7108;42.684;23.350;2023-07-31T03:48:18;94994.16;;;21.65;100.00
14067;BME280;7108;42.684;23.350;2023-07-31T03:50:43;94989.78;;;21.68;100.00
14067;BME280;7108;42.684;23.350;2023-07-31T03:53:09;94991.31;;;21.69;100.00
14067;BME280;7108;42.684;23.350;2023-07-31T03:55:34;94993.31;;;21.68;100.00
14067;BME280;7108;42.684;23.350;2023-07-31T03:58:00;94994.06;;;21.69;100.00
14067;BME280;7108;42.684;23.350;2023-07-31T04:00:26;94981.94;;;21.54;100.00
14067;BME280;7108;42.684;23.350;2023-07-31T04:02:52;95006.78;;;21.63;100.00
14067;BME280;7108;42.684;23.350;2023-07-31T04:05:17;95019.69;;;21.78;100.00
14067;BME280;7108;42.684;23.350;2023-07-31T04:07:43;94994.94;;;21.66;100.00
14067;BME280;7108;42.684;23.350;2023-07-31T04:10:08;94993.41;;;21.65;100.00
14067;BME280;7108;42.684;23.350;2023-07-31T04:12:34;95014.19;;;21.78;100.00
14067;BME280;7108;42.684;23.350;2023-07-31T04:14:59;95022.13;;;21.88;100.00
14067;BME280;7108;42.684;23.350;2023-07-31T04:17:25;95003.66;;;21.77;100.00
14067;BME280;7108;42.684;23.350;2023-07-31T04:19:50;95020.13;;;21.77;100.00
14067;BME280;7108;42.684;23.350;2023-07-31T04:22:16;95027.06;;;21.93;100.00
14067;BME280;7108;42.684;23.350;2023-07-31T04:24:41;95010.00;;;21.74;100.00
14067;BME280;7108;42.684;23.350;2023-07-31T04:27:06;94953.72;;;21.25;100.00
14067;BME280;7108;42.684;23.350;2023-07-31T04:29:32;95009.38;;;21.54;100.00
14067;BME280;7108;42.684;23.350;2023-07-31T04:31:57;95030.78;;;21.59;100.00
14067;BME280;7108;42.684;23.350;2023-07-31T04:34:23;94995.72;;;21.50;100.00
14067;BME280;7108;42.684;23.350;2023-07-31T04:36:48;95036.00;;;21.69;100.00
14067;BME280;7108;42.684;23.350;2023-07-31T04:39:14;95012.69;;;21.61;100.00
14067;BME280;7108;42.684;23.350;2023-07-31T04:41:39;94981.25;;;21.50;100.00
14067;BME280;7108;42.684;23.350;2023-07-31T04:44:04;95000.19;;;21.60;100.00
14067;BME280;7108;42.684;23.350;2023-07-31T04:46:30;95013.97;;;21.73;100.00
14067;BME280;7108;42.684;23.350;2023-07-31T04:48:56;95016.94;;;21.78;100.00
14067;BME280;7108;42.684;23.350;2023-07-31T04:51:22;95026.63;;;21.82;100.00
14067;BME280;7108;42.684;23.350;2023-07-31T04:53:48;95018.66;;;21.72;100.00
14067;BME280;7108;42.684;23.350;2023-07-31T04:56:13;95017.41;;;21.61;100.00
14067;BME280;7108;42.684;23.350;2023-07-31T04:58:40;94998.31;;;21.41;100.00
14067;BME280;7108;42.684;23.350;2023-07-31T05:01:06;94987.63;;;21.31;100.00
14067;BME280;7108;42.684;23.350;2023-07-31T05:03:31;95038.78;;;21.53;100.00
14067;BME280;7108;42.684;23.350;2023-07-31T05:05:57;95032.47;;;21.69;100.00
14067;BME280;7108;42.684;23.350;2023-07-31T05:08:22;95013.88;;;21.60;100.00
14067;BME280;7108;42.684;23.350;2023-07-31T05:10:47;94980.31;;;21.40;100.00
14067;BME280;7108;42.684;23.350;2023-07-31T05:13:14;94997.25;;;21.51;100.00
14067;BME280;7108;42.684;23.350;2023-07-31T05:15:40;95019.16;;;21.83;100.00
14067;BME280;7108;42.684;23.350;2023-07-31T05:18:06;95027.03;;;21.81;100.00
14067;BME280;7108;42.684;23.350;2023-07-31T05:20:31;95003.41;;;21.71;100.00
14067;BME280;7108;42.684;23.350;2023-07-31T05:22:57;95001.44;;;21.72;100.00
14067;BME280;7108;42.684;23.350;2023-07-31T05:25:25;95015.28;;;21.80;100.00
14067;BME280;7108;42.684;23.350;2023-07-31T05:27:50;95016.06;;;21.81;100.00
14067;BME280;7108;42.684;23.350;2023-07-31T05:30:16;95000.44;;;21.66;100.00
14067;BME280;7108;42.684;23.350;2023-07-31T05:32:41;95009.84;;;21.65;100.00
14067;BME280;7108;42.684;23.350;2023-07-31T05:35:07;94993.41;;;21.65;100.00
14067;BME280;7108;42.684;23.350;2023-07-31T05:37:32;95005.53;;;21.79;100.00
14067;BME280;7108;42.684;23.350;2023-07-31T05:39:58;95002.78;;;21.79;100.00
14067;BME280;7108;42.684;23.350;2023-07-31T05:42:23;94999.38;;;21.76;100.00
14067;BME280;7108;42.684;23.350;2023-07-31T05:44:49;94981.25;;;21.50;100.00
14067;BME280;7108;42.684;23.350;2023-07-31T05:47:14;94982.44;;;21.49;100.00
14067;BME280;7108;42.684;23.350;2023-07-31T05:49:40;95023.88;;;21.82;100.00
14067;BME280;7108;42.684;23.350;2023-07-31T05:52:06;95012.22;;;21.78;100.00
14067;BME280;7108;42.684;23.350;2023-07-31T05:54:32;95019.28;;;21.64;100.00
14067;BME280;7108;42.684;23.350;2023-07-31T05:56:58;94971.06;;;21.34;100.00
14067;BME280;7108;42.684;23.350;2023-07-31T05:59:23;95021.94;;;21.51;100.00
14067;BME280;7108;42.684;23.350;2023-07-31T06:01:49;95006.19;;;21.55;100.00
14067;BME280;7108;42.684;23.350;2023-07-31T06:04:14;95007.06;;;21.52;100.00
14067;BME280;7108;42.684;23.350;2023-07-31T06:06:40;95022.69;;;21.68;100.00
14067;BME280;7108;42.684;23.350;2023-07-31T06:09:05;95011.41;;;21.66;100.00
14067;BME280;7108;42.684;23.350;2023-07-31T06:11:32;94993.06;;;21.63;100.00
14067;BME280;7108;42.684;23.350;2023-07-31T06:13:57;95006.84;;;21.75;100.00
14067;BME280;7108;42.684;23.350;2023-07-31T06:16:23;95002.38;;;21.93;100.00
14067;BME280;7108;42.684;23.350;2023-07-31T06:18:48;94975.69;;;21.81;100.00
14067;BME280;7108;42.684;23.350;2023-07-31T06:21:14;94959.34;;;21.78;100.00
14067;BME280;7108;42.684;23.350;2023-07-31T06:23:39;95008.84;;;22.28;100.00
14067;BME280;7108;42.684;23.350;2023-07-31T06:26:05;94997.31;;;22.33;100.00
14067;BME280;7108;42.684;23.350;2023-07-31T06:28:31;94981.25;;;22.19;100.00
14067;BME280;7108;42.684;23.350;2023-07-31T06:31:02;95020.28;;;22.39;100.00
14067;BME280;7108;42.684;23.350;2023-07-31T06:33:28;95019.84;;;22.40;100.00
14067;BME280;7108;42.684;23.350;2023-07-31T06:35:53;95012.75;;;22.55;100.00
14067;BME280;7108;42.684;23.350;2023-07-31T06:38:24;95006.81;;;22.44;100.00
14067;BME280;7108;42.684;23.350;2023-07-31T06:40:49;95004.72;;;22.36;100.00
14067;BME280;7108;42.684;23.350;2023-07-31T06:43:15;94968.41;;;22.16;100.00
14067;BME280;7108;42.684;23.350;2023-07-31T06:45:43;94982.50;;;22.30;100.00
14067;BME280;7108;42.684;23.350;2023-07-31T06:48:09;95004.06;;;22.32;100.00
14067;BME280;7108;42.684;23.350;2023-07-31T06:50:35;95008.94;;;22.24;100.00
14067;BME280;7108;42.684;23.350;2023-07-31T06:53:00;94999.53;;;21.97;100.00
14067;BME280;7108;42.684;23.350;2023-07-31T06:55:26;95020.41;;;22.35;100.00
14067;BME280;7108;42.684;23.350;2023-07-31T06:57:53;94966.03;;;21.89;100.00
14067;BME280;7108;42.684;23.350;2023-07-31T07:00:20;95003.22;;;22.19;100.00
14067;BME280;7108;42.684;23.350;2023-07-31T07:02:46;95024.25;;;22.38;100.00
14067;BME280;7108;42.684;23.350;2023-07-31T07:05:15;95011.31;;;22.38;100.00
14067;BME280;7108;42.684;23.350;2023-07-31T07:07:41;94988.88;;;22.27;100.00
14067;BME280;7108;42.684;23.350;2023-07-31T07:10:08;94991.75;;;22.36;100.00
14067;BME280;7108;42.684;23.350;2023-07-31T07:12:34;95016.53;;;22.33;100.00
14067;BME280;7108;42.684;23.350;2023-07-31T07:15:00;94951.94;;;22.03;100.00
14067;BME280;7108;42.684;23.350;2023-07-31T07:17:27;95004.81;;;22.44;100.00
14067;BME280;7108;42.684;23.350;2023-07-31T07:19:52;94996.81;;;22.50;100.00
14067;BME280;7108;42.684;23.350;2023-07-31T07:22:18;94995.38;;;22.45;100.00
14067;BME280;7108;42.684;23.350;2023-07-31T07:24:43;95003.41;;;22.52;100.00
14067;BME280;7108;42.684;23.350;2023-07-31T07:27:09;95003.41;;;22.65;100.00
14067;BME280;7108;42.684;23.350;2023-07-31T07:29:35;95024.06;;;22.69;100.00
14067;BME280;7108;42.684;23.350;2023-07-31T07:32:00;94992.28;;;22.31;100.00
14067;BME280;7108;42.684;23.350;2023-07-31T07:34:27;95010.84;;;22.40;100.00
14067;BME280;7108;42.684;23.350;2023-07-31T07:36:53;95014.81;;;22.39;100.00
14067;BME280;7108;42.684;23.350;2023-07-31T07:39:19;94987.09;;;22.21;100.00
14067;BME280;7108;42.684;23.350;2023-07-31T07:41:45;95000.53;;;22.43;100.00
14067;BME280;7108;42.684;23.350;2023-07-31T07:44:11;94997.56;;;22.50;100.00
14067;BME280;7108;42.684;23.350;2023-07-31T07:46:36;94995.03;;;22.56;100.00
14067;BME280;7108;42.684;23.350;2023-07-31T07:49:02;94995.94;;;22.65;100.00
14067;BME280;7108;42.684;23.350;2023-07-31T07:51:27;95016.59;;;22.95;100.00
14067;BME280;7108;42.684;23.350;2023-07-31T07:53:55;95014.31;;;23.06;100.00
14067;BME280;7108;42.684;23.350;2023-07-31T07:56:21;95011.31;;;23.00;100.00
14067;BME280;7108;42.684;23.350;2023-07-31T07:58:49;95015.72;;;23.22;100.00
14067;BME280;7108;42.684;23.350;2023-07-31T08:01:18;95027.97;;;23.43;100.00
14067;BME280;7108;42.684;23.350;2023-07-31T08:03:43;95003.66;;;23.41;100.00
14067;BME280;7108;42.684;23.350;2023-07-31T08:06:09;94979.06;;;23.25;100.00
14067;BME280;7108;42.684;23.350;2023-07-31T08:08:35;95005.16;;;23.55;100.00
14067;BME280;7108;42.684;23.350;2023-07-31T08:11:01;94994.66;;;23.41;100.00
14067;BME280;7108;42.684;23.350;2023-07-31T08:13:26;95003.81;;;23.25;100.00
14067;BME280;7108;42.684;23.350;2023-07-31T08:15:52;94991.91;;;23.28;100.00
14067;BME280;7108;42.684;23.350;2023-07-31T08:18:17;94999.78;;;23.51;100.00
14067;BME280;7108;42.684;23.350;2023-07-31T08:20:43;95016.09;;;23.46;100.00
14067;BME280;7108;42.684;23.350;2023-07-31T08:23:09;95021.16;;;23.47;100.00
14067;BME280;7108;42.684;23.350;2023-07-31T08:25:35;95017.16;;;23.61;100.00
14067;BME280;7108;42.684;23.350;2023-07-31T08:28:01;95015.78;;;23.65;100.00
14067;BME280;7108;42.684;23.350;2023-07-31T08:30:26;95010.28;;;23.65;100.00
14067;BME280;7108;42.684;23.350;2023-07-31T08:32:52;95018.28;;;23.84;100.00
14067;BME280;7108;42.684;23.350;2023-07-31T08:35:17;95006.91;;;23.95;100.00
14067;BME280;7108;42.684;23.350;2023-07-31T08:37:43;95007.84;;;24.01;100.00
14067;BME280;7108;42.684;23.350;2023-07-31T08:40:09;94987.31;;;23.93;100.00
14067;BME280;7108;42.684;23.350;2023-07-31T08:42:45;95008.97;;;24.03;100.00
14067;BME280;7108;42.684;23.350;2023-07-31T08:45:16;95010.88;;;23.94;100.00
14067;BME280;7108;42.684;23.350;2023-07-31T08:47:49;95010.25;;;23.90;100.00
14067;BME280;7108;42.684;23.350;2023-07-31T08:50:17;95003.31;;;24.07;100.00
14067;BME280;7108;42.684;23.350;2023-07-31T08:52:43;95007.94;;;24.10;100.00
14067;BME280;7108;42.684;23.350;2023-07-31T08:55:08;95006.41;;;24.09;100.00
14067;BME280;7108;42.684;23.350;2023-07-31T08:57:36;94991.72;;;24.12;100.00
14067;BME280;7108;42.684;23.350;2023-07-31T09:00:03;95006.31;;;24.21;100.00
14067;BME280;7108;42.684;23.350;2023-07-31T09:02:35;94986.63;;;24.01;100.00
14067;BME280;7108;42.684;23.350;2023-07-31T09:05:03;94971.63;;;24.02;100.00
14067;BME280;7108;42.684;23.350;2023-07-31T09:07:31;94953.81;;;24.16;100.00
14067;BME280;7108;42.684;23.350;2023-07-31T09:09:58;94960.88;;;24.47;100.00
14067;BME280;7108;42.684;23.350;2023-07-31T09:12:25;94970.00;;;24.65;100.00
14067;BME280;7108;42.684;23.350;2023-07-31T09:14:51;95003.00;;;24.87;100.00
14067;BME280;7108;42.684;23.350;2023-07-31T09:17:35;94992.13;;;24.83;100.00
14067;BME280;7108;42.684;23.350;2023-07-31T09:20:17;95000.16;;;24.99;100.00
14067;BME280;7108;42.684;23.350;2023-07-31T09:22:43;94961.66;;;24.87;100.00
14067;BME280;7108;42.684;23.350;2023-07-31T09:25:23;94966.41;;;24.86;100.00
14067;BME280;7108;42.684;23.350;2023-07-31T09:30:15;94964.13;;;24.85;100.00
14067;BME280;7108;42.684;23.350;2023-07-31T09:32:40;94960.97;;;25.04;100.00
14067;BME280;7108;42.684;23.350;2023-07-31T09:37:40;94965.50;;;25.46;100.00
14067;BME280;7108;42.684;23.350;2023-07-31T09:40:06;94970.41;;;25.60;100.00
14067;BME280;7108;42.684;23.350;2023-07-31T09:42:33;94973.00;;;25.64;100.00
14067;BME280;7108;42.684;23.350;2023-07-31T09:45:08;94929.16;;;25.30;100.00
14067;BME280;7108;42.684;23.350;2023-07-31T09:47:34;94976.84;;;25.57;100.00
14067;BME280;7108;42.684;23.350;2023-07-31T09:50:00;94955.69;;;25.45;100.00
14067;BME280;7108;42.684;23.350;2023-07-31T09:52:28;94970.41;;;25.60;100.00
14067;BME280;7108;42.684;23.350;2023-07-31T09:54:54;94957.88;;;25.77;99.34
14067;BME280;7108;42.684;23.350;2023-07-31T09:57:21;94966.88;;;25.69;95.52
14067;BME280;7108;42.684;23.350;2023-07-31T09:59:48;94966.75;;;25.63;99.09
14067;BME280;7108;42.684;23.350;2023-07-31T10:02:21;94959.34;;;25.60;98.48
14067;BME280;7108;42.684;23.350;2023-07-31T10:04:49;94919.06;;;25.45;96.72
14067;BME280;7108;42.684;23.350;2023-07-31T10:07:17;94957.72;;;25.81;95.23
14067;BME280;7108;42.684;23.350;2023-07-31T10:09:43;94921.19;;;25.50;94.90
14067;BME280;7108;42.684;23.350;2023-07-31T10:12:11;94947.88;;;25.71;96.43
14067;BME280;7108;42.684;23.350;2023-07-31T10:14:38;94951.59;;;25.77;92.32
14067;BME280;7108;42.684;23.350;2023-07-31T10:17:05;94941.25;;;25.59;86.85
14067;BME280;7108;42.684;23.350;2023-07-31T10:19:32;94924.09;;;25.46;90.86
14067;BME280;7108;42.684;23.350;2023-07-31T10:22:00;94948.63;;;25.62;92.44
14067;BME280;7108;42.684;23.350;2023-07-31T10:24:28;94940.66;;;26.00;89.39
14067;BME280;7108;42.684;23.350;2023-07-31T10:26:57;94927.59;;;26.09;86.74
14067;BME280;7108;42.684;23.350;2023-07-31T10:29:24;94955.09;;;26.04;86.48
14067;BME280;7108;42.684;23.350;2023-07-31T10:31:50;94955.84;;;25.95;85.53
14067;BME280;7108;42.684;23.350;2023-07-31T10:34:16;94937.56;;;26.16;85.99
14067;BME280;7108;42.684;23.350;2023-07-31T10:36:42;94940.25;;;26.51;82.78
14067;BME280;7108;42.684;23.350;2023-07-31T10:39:33;94938.41;;;26.90;76.59
14067;BME280;7108;42.684;23.350;2023-07-31T10:41:58;94900.00;;;26.83;76.08
14067;BME280;7108;42.684;23.350;2023-07-31T10:44:24;94936.97;;;26.94;74.04
14067;BME280;7108;42.684;23.350;2023-07-31T10:46:49;94940.75;;;27.15;73.16
14067;BME280;7108;42.684;23.350;2023-07-31T10:49:21;94910.06;;;27.04;71.84
14067;BME280;7108;42.684;23.350;2023-07-31T10:51:47;94935.97;;;27.38;73.49
14067;BME280;7108;42.684;23.350;2023-07-31T10:54:14;94934.44;;;27.37;68.36
14067;BME280;7108;42.684;23.350;2023-07-31T10:56:45;94906.19;;;27.10;66.42
14067;BME280;7108;42.684;23.350;2023-07-31T10:59:11;94920.72;;;27.19;66.56
14067;BME280;7108;42.684;23.350;2023-07-31T11:01:54;94931.84;;;27.11;67.36
14067;BME280;7108;42.684;23.350;2023-07-31T11:04:23;94927.84;;;27.12;69.74
14067;BME280;7108;42.684;23.350;2023-07-31T11:07:00;94924.63;;;27.13;69.71
14067;BME280;7108;42.684;23.350;2023-07-31T11:09:31;94920.56;;;27.23;67.07
14067;BME280;7108;42.684;23.350;2023-07-31T11:12:00;94924.47;;;27.31;66.05
14067;BME280;7108;42.684;23.350;2023-07-31T11:14:25;94917.00;;;27.46;62.88
14067;BME280;7108;42.684;23.350;2023-07-31T11:16:51;94906.34;;;27.53;63.37
14067;BME280;7108;42.684;23.350;2023-07-31T11:19:25;94911.16;;;27.67;59.91
14067;BME280;7108;42.684;23.350;2023-07-31T11:21:52;94896.44;;;27.61;58.86
14067;BME280;7108;42.684;23.350;2023-07-31T11:24:18;94908.00;;;27.36;58.57
14067;BME280;7108;42.684;23.350;2023-07-31T11:26:53;94915.72;;;27.32;59.76
14067;BME280;7108;42.684;23.350;2023-07-31T11:29:19;94914.59;;;27.39;63.71
14067;BME280;7108;42.684;23.350;2023-07-31T11:31:46;94883.94;;;27.28;59.76
14067;BME280;7108;42.684;23.350;2023-07-31T11:34:12;94906.94;;;27.34;60.96
14067;BME280;7108;42.684;23.350;2023-07-31T11:36:38;94881.75;;;27.09;60.87
14067;BME280;7108;42.684;23.350;2023-07-31T11:39:10;94899.69;;;27.36;59.44
14067;BME280;7108;42.684;23.350;2023-07-31T11:41:36;94907.03;;;27.63;57.77
14067;BME280;7108;42.684;23.350;2023-07-31T11:44:01;94902.56;;;27.65;58.09
14067;BME280;7108;42.684;23.350;2023-07-31T11:46:30;94898.28;;;27.41;60.66
14067;BME280;7108;42.684;23.350;2023-07-31T11:48:59;94910.84;;;27.27;62.94
14067;BME280;7108;42.684;23.350;2023-07-31T11:51:25;94887.13;;;26.80;63.59
14067;BME280;7108;42.684;23.350;2023-07-31T11:53:56;94914.88;;;27.17;64.71
14067;BME280;7108;42.684;23.350;2023-07-31T11:56:23;94904.53;;;27.27;63.80
14067;BME280;7108;42.684;23.350;2023-07-31T11:58:53;94878.63;;;26.92;60.89
14067;BME280;7108;42.684;23.350;2023-07-31T12:01:19;94897.34;;;27.20;60.73
14067;BME280;7108;42.684;23.350;2023-07-31T12:03:47;94901.56;;;27.54;63.07
14067;BME280;7108;42.684;23.350;2023-07-31T12:06:12;94893.53;;;27.79;60.14
14067;BME280;7108;42.684;23.350;2023-07-31T12:08:37;94901.16;;;27.70;57.58
14067;BME280;7108;42.684;23.350;2023-07-31T12:11:05;94892.63;;;27.59;59.43
14067;BME280;7108;42.684;23.350;2023-07-31T12:13:32;94855.63;;;27.47;60.70
14067;BME280;7108;42.684;23.350;2023-07-31T12:15:59;94878.13;;;27.64;56.40
14067;BME280;7108;42.684;23.350;2023-07-31T12:18:27;94883.38;;;27.76;57.22
14067;BME280;7108;42.684;23.350;2023-07-31T12:23:23;94874.88;;;27.65;59.79
14067;BME280;7108;42.684;23.350;2023-07-31T12:26:08;94879.44;;;27.30;60.29
14067;BME280;7108;42.684;23.350;2023-07-31T12:28:48;94864.44;;;27.22;64.02
14067;BME280;7108;42.684;23.350;2023-07-31T12:31:18;94880.34;;;27.13;59.92
14067;BME280;7108;42.684;23.350;2023-07-31T12:33:45;94892.06;;;27.08;61.92
14067;BME280;7108;42.684;23.350;2023-07-31T12:36:17;94841.75;;;26.63;61.79
14067;BME280;7108;42.684;23.350;2023-07-31T12:38:43;94849.81;;;26.75;62.10
14067;BME280;7108;42.684;23.350;2023-07-31T12:41:09;94839.72;;;26.40;63.75
14067;BME280;7108;42.684;23.350;2023-07-31T12:43:36;94891.81;;;26.65;63.62
14067;BME280;7108;42.684;23.350;2023-07-31T12:46:02;94862.97;;;26.57;66.18
14067;BME280;7108;42.684;23.350;2023-07-31T12:48:28;94863.72;;;26.66;65.32
14067;BME280;7108;42.684;23.350;2023-07-31T12:50:53;94856.94;;;26.67;64.93
14067;BME280;7108;42.684;23.350;2023-07-31T12:53:19;94862.34;;;26.62;65.60
14067;BME280;7108;42.684;23.350;2023-07-31T12:55:44;94858.34;;;26.63;64.24
14067;BME280;7108;42.684;23.350;2023-07-31T12:58:10;94852.16;;;26.45;64.59
14067;BME280;7108;42.684;23.350;2023-07-31T13:00:35;94862.50;;;26.58;65.64
14067;BME280;7108;42.684;23.350;2023-07-31T13:03:01;94863.53;;;26.70;65.26
14067;BME280;7108;42.684;23.350;2023-07-31T13:05:27;94860.25;;;26.80;65.87
14067;BME280;7108;42.684;23.350;2023-07-31T13:07:53;94828.53;;;26.67;67.52